Broome International Airport
YBRM : now visible

Airfield :











YOU CAN JOIN US ON...

 
LOGIN :

Register | Disclaimer

   EN    FR    IT 

 









Legend :    VFR   Marginal VFR   IFR   Intensive IFR   Very Intensive IFR
Visi :
Ceiling :
>= 8 km
>= 3000ft
5 to 8 km
1000 to 3000 ft
1500m to 5 km
500 to 1000 ft
800 to 1500m
200 to 500 ft
< 800m
< 200 ft
Symbols :   Thunderstorms  Fog  Heavy snow  Heavy precipitations  Wind > 20 kt






- Airport Elevation : 56 ft
- IATA code : BME


YBRM - Broome International

CURRENT METAR :
  • 280400Z AUTO 12011KT 9999 // OVC063 26/19 Q1013

EXPIRED METARs :
  • 280330Z 11011KT 9999 FEW022 BKN063 25/19 Q1013 RF00.0/000.0
  • 280300Z 11010KT 9999 FEW022 BKN065 25/18 Q1014
  • 280230Z 10012KT 9999 FEW022 BKN067 25/18 Q1014 RF00.0/000.0
  • 280200Z 10010KT 9999 FEW015 SCT067 BKN120 24/18 Q1015
  • 280130Z 10012KT 9999 FEW015 BKN070 23/17 Q1015 RF00.0/000.0

TAF TAF YBRM
Valid from the 28 at 00:00 until the 29 at 00:00 UTC


272314Z 2800/2900 11012KT 9999 SCT025
FM281200 10008KT 9999 SCT014 SCT030
TEMPO 2816/2900 9999 BKN010
YBBB FIR / Oceania



MET'MAP, your aeronautical weather chart ! - Copyright ORBIFLY December 2007 - Disclaimer

ORBIFLY MET'MAP TEAM :

Programming & Development : Alexandra Zaïnal
Concept & original design : Baudouin d'Aumeries
Assistance for programming : Marc-Olivier Méhu
Technical & hardware support : Manuel Goepfert

Contact : metmap@orbifly.com




SOURCES & CREDITS :

   NOAA       Earth
Advisory